sensor_id;sensor_type;location;lat;lon;timestamp;pressure;altitude;pressure_sealevel;temperature;humidity
17873;BME280;36318;42.620;23.338;2023-02-16T00:01:14;94104.03;;;-0.92;100.00
17873;BME280;36318;42.620;23.338;2023-02-16T00:03:41;94110.09;;;-0.99;100.00
17873;BME280;36318;42.620;23.338;2023-02-16T00:06:08;94107.88;;;-1.16;100.00
17873;BME280;36318;42.620;23.338;2023-02-16T00:08:38;94116.56;;;-1.25;100.00
17873;BME280;36318;42.620;23.338;2023-02-16T00:11:07;94111.47;;;-1.25;100.00
17873;BME280;36318;42.620;23.338;2023-02-16T00:13:54;94115.69;;;-1.24;100.00
17873;BME280;36318;42.620;23.338;2023-02-16T00:16:23;94109.00;;;-1.28;100.00
17873;BME280;36318;42.620;23.338;2023-02-16T00:18:50;94114.13;;;-1.31;100.00
17873;BME280;36318;42.620;23.338;2023-02-16T00:21:17;94112.44;;;-1.32;100.00
17873;BME280;36318;42.620;23.338;2023-02-16T00:23:43;94108.31;;;-1.37;100.00
17873;BME280;36318;42.620;23.338;2023-02-16T00:26:12;94104.22;;;-1.44;100.00
17873;BME280;36318;42.620;23.338;2023-02-16T00:28:39;94097.38;;;-1.41;100.00
17873;BME280;36318;42.620;23.338;2023-02-16T00:31:07;94101.56;;;-1.38;100.00
17873;BME280;36318;42.620;23.338;2023-02-16T00:33:35;94099.91;;;-1.41;100.00
17873;BME280;36318;42.620;23.338;2023-02-16T00:36:02;94105.00;;;-1.41;100.00
17873;BME280;36318;42.620;23.338;2023-02-16T00:38:28;94096.59;;;-1.46;100.00
17873;BME280;36318;42.620;23.338;2023-02-16T00:40:55;94103.44;;;-1.48;100.00
17873;BME280;36318;42.620;23.338;2023-02-16T00:43:23;94095.78;;;-1.48;100.00
17873;BME280;36318;42.620;23.338;2023-02-16T00:45:50;94100.03;;;-1.47;100.00
17873;BME280;36318;42.620;23.338;2023-02-16T00:48:17;94101.78;;;-1.49;100.00
17873;BME280;36318;42.620;23.338;2023-02-16T00:50:45;94105.22;;;-1.53;100.00
17873;BME280;36318;42.620;23.338;2023-02-16T00:53:12;94103.66;;;-1.60;100.00
17873;BME280;36318;42.620;23.338;2023-02-16T00:55:38;94102.78;;;-1.59;100.00
17873;BME280;36318;42.620;23.338;2023-02-16T00:58:07;94107.06;;;-1.61;100.00
17873;BME280;36318;42.620;23.338;2023-02-16T01:00:38;94093.53;;;-1.63;100.00
17873;BME280;36318;42.620;23.338;2023-02-16T01:03:08;94102.72;;;-1.54;100.00
17873;BME280;36318;42.620;23.338;2023-02-16T01:05:35;94094.25;;;-1.56;100.00
17873;BME280;36318;42.620;23.338;2023-02-16T01:08:04;94088.16;;;-1.48;100.00
17873;BME280;36318;42.620;23.338;2023-02-16T01:10:49;94095.63;;;-1.40;100.00
17873;BME280;36318;42.620;23.338;2023-02-16T01:13:40;94090.66;;;-1.45;100.00
17873;BME280;36318;42.620;23.338;2023-02-16T01:16:12;94087.41;;;-1.53;100.00
17873;BME280;36318;42.620;23.338;2023-02-16T01:18:39;94087.56;;;-1.60;100.00
17873;BME280;36318;42.620;23.338;2023-02-16T01:21:06;94083.31;;;-1.60;100.00
17873;BME280;36318;42.620;23.338;2023-02-16T01:23:34;94079.94;;;-1.62;100.00
17873;BME280;36318;42.620;23.338;2023-02-16T01:26:00;94076.38;;;-1.52;100.00
17873;BME280;36318;42.620;23.338;2023-02-16T01:28:27;94063.75;;;-1.58;100.00
17873;BME280;36318;42.620;23.338;2023-02-16T01:30:54;94069.00;;;-1.67;100.00
17873;BME280;36318;42.620;23.338;2023-02-16T01:33:20;94068.25;;;-1.70;100.00
17873;BME280;36318;42.620;23.338;2023-02-16T01:35:47;94072.63;;;-1.78;100.00
17873;BME280;36318;42.620;23.338;2023-02-16T01:38:15;94068.25;;;-1.72;100.00
17873;BME280;36318;42.620;23.338;2023-02-16T01:40:45;94063.31;;;-1.79;100.00
17873;BME280;36318;42.620;23.338;2023-02-16T01:43:17;94062.38;;;-1.75;100.00
17873;BME280;36318;42.620;23.338;2023-02-16T01:45:45;94062.38;;;-1.75;100.00
17873;BME280;36318;42.620;23.338;2023-02-16T01:48:17;94068.41;;;-1.81;100.00
17873;BME280;36318;42.620;23.338;2023-02-16T01:50:47;94060.94;;;-1.89;100.00
17873;BME280;36318;42.620;23.338;2023-02-16T01:53:17;94065.16;;;-1.89;100.00
17873;BME280;36318;42.620;23.338;2023-02-16T01:55:46;94062.81;;;-1.98;100.00
17873;BME280;36318;42.620;23.338;2023-02-16T01:58:16;94057.88;;;-2.06;100.00
17873;BME280;36318;42.620;23.338;2023-02-16T02:03:30;94054.25;;;-1.94;100.00
17873;BME280;36318;42.620;23.338;2023-02-16T02:06:16;94055.06;;;-1.92;100.00
17873;BME280;36318;42.620;23.338;2023-02-16T02:08:44;94054.38;;;-2.00;100.00
17873;BME280;36318;42.620;23.338;2023-02-16T02:11:15;94057.72;;;-1.98;100.00
17873;BME280;36318;42.620;23.338;2023-02-16T02:13:44;94056.78;;;-1.94;100.00
17873;BME280;36318;42.620;23.338;2023-02-16T02:16:14;94052.69;;;-2.03;100.00
17873;BME280;36318;42.620;23.338;2023-02-16T02:18:41;94056.91;;;-2.00;100.00
17873;BME280;36318;42.620;23.338;2023-02-16T02:21:15;94057.78;;;-2.03;100.00
17873;BME280;36318;42.620;23.338;2023-02-16T02:24:11;94059.47;;;-2.00;100.00
17873;BME280;36318;42.620;23.338;2023-02-16T02:26:58;94057.63;;;-1.94;100.00
17873;BME280;36318;42.620;23.338;2023-02-16T02:32:16;94055.22;;;-2.01;100.00
17873;BME280;36318;42.620;23.338;2023-02-16T02:35:00;94047.50;;;-1.97;100.00
17873;BME280;36318;42.620;23.338;2023-02-16T02:37:32;94047.44;;;-1.92;100.00
17873;BME280;36318;42.620;23.338;2023-02-16T02:40:03;94048.31;;;-1.93;100.00
17873;BME280;36318;42.620;23.338;2023-02-16T02:42:33;94042.41;;;-1.97;100.00
17873;BME280;36318;42.620;23.338;2023-02-16T02:45:05;94044.22;;;-2.02;100.00
17873;BME280;36318;42.620;23.338;2023-02-16T02:47:35;94038.06;;;-1.90;100.00
17873;BME280;36318;42.620;23.338;2023-02-16T02:50:02;94039.72;;;-1.89;100.00
17873;BME280;36318;42.620;23.338;2023-02-16T02:52:29;94036.44;;;-1.94;100.00
17873;BME280;36318;42.620;23.338;2023-02-16T02:54:55;94041.66;;;-2.00;100.00
17873;BME280;36318;42.620;23.338;2023-02-16T02:57:41;94042.63;;;-2.07;100.00
17873;BME280;36318;42.620;23.338;2023-02-16T03:00:28;94049.38;;;-2.06;100.00
17873;BME280;36318;42.620;23.338;2023-02-16T03:03:08;94051.31;;;-2.20;100.00
17873;BME280;36318;42.620;23.338;2023-02-16T03:05:36;94054.84;;;-2.27;100.00
17873;BME280;36318;42.620;23.338;2023-02-16T03:08:06;94051.31;;;-2.20;100.00
17873;BME280;36318;42.620;23.338;2023-02-16T03:10:39;94053.97;;;-2.26;100.00
17873;BME280;36318;42.620;23.338;2023-02-16T03:13:27;94061.63;;;-2.28;100.00
17873;BME280;36318;42.620;23.338;2023-02-16T03:15:55;94057.22;;;-2.17;100.00
17873;BME280;36318;42.620;23.338;2023-02-16T03:18:22;94043.66;;;-2.17;100.00
17873;BME280;36318;42.620;23.338;2023-02-16T03:21:08;94055.44;;;-2.13;100.00
17873;BME280;36318;42.620;23.338;2023-02-16T03:23:53;94053.81;;;-2.17;100.00
17873;BME280;36318;42.620;23.338;2023-02-16T03:26:37;94055.56;;;-2.19;100.00
17873;BME280;36318;42.620;23.338;2023-02-16T03:29:23;94042.00;;;-2.21;100.00
17873;BME280;36318;42.620;23.338;2023-02-16T03:31:52;94040.25;;;-2.16;100.00
17873;BME280;36318;42.620;23.338;2023-02-16T03:34:19;94041.97;;;-2.18;100.00
17873;BME280;36318;42.620;23.338;2023-02-16T03:36:47;94044.44;;;-2.15;100.00
17873;BME280;36318;42.620;23.338;2023-02-16T03:39:14;94039.50;;;-2.23;100.00
17873;BME280;36318;42.620;23.338;2023-02-16T03:41:42;94037.78;;;-2.21;100.00
17873;BME280;36318;42.620;23.338;2023-02-16T03:44:09;94039.41;;;-2.18;100.00
17873;BME280;36318;42.620;23.338;2023-02-16T03:46:37;94042.91;;;-2.22;100.00
17873;BME280;36318;42.620;23.338;2023-02-16T03:49:03;94039.50;;;-2.23;100.00
17873;BME280;36318;42.620;23.338;2023-02-16T03:51:30;94046.94;;;-2.12;100.00
17873;BME280;36318;42.620;23.338;2023-02-16T03:53:57;94041.84;;;-2.12;100.00
17873;BME280;36318;42.620;23.338;2023-02-16T03:56:24;94040.06;;;-2.07;100.00
17873;BME280;36318;42.620;23.338;2023-02-16T03:58:50;94038.41;;;-2.08;100.00
17873;BME280;36318;42.620;23.338;2023-02-16T04:01:17;94039.28;;;-2.11;100.00
17873;BME280;36318;42.620;23.338;2023-02-16T04:03:45;94029.75;;;-1.98;100.00
17873;BME280;36318;42.620;23.338;2023-02-16T04:06:11;94030.66;;;-2.02;100.00
17873;BME280;36318;42.620;23.338;2023-02-16T04:08:38;94029.75;;;-1.98;100.00
17873;BME280;36318;42.620;23.338;2023-02-16T04:11:05;94027.19;;;-1.98;100.00
17873;BME280;36318;42.620;23.338;2023-02-16T04:13:52;94030.50;;;-1.95;100.00
17873;BME280;36318;42.620;23.338;2023-02-16T04:16:18;94024.59;;;-1.95;100.00
17873;BME280;36318;42.620;23.338;2023-02-16T04:18:46;94023.84;;;-2.00;100.00
17873;BME280;36318;42.620;23.338;2023-02-16T04:21:13;94024.50;;;-1.91;100.00
17873;BME280;36318;42.620;23.338;2023-02-16T04:23:39;94020.84;;;-1.76;100.00
17873;BME280;36318;42.620;23.338;2023-02-16T04:26:06;94014.19;;;-1.83;100.00
17873;BME280;36318;42.620;23.338;2023-02-16T04:28:32;94016.78;;;-1.85;100.00
17873;BME280;36318;42.620;23.338;2023-02-16T04:30:59;94014.81;;;-1.72;100.00
17873;BME280;36318;42.620;23.338;2023-02-16T04:33:25;94015.47;;;-1.61;100.00
17873;BME280;36318;42.620;23.338;2023-02-16T04:35:53;94015.63;;;-1.70;100.00
17873;BME280;36318;42.620;23.338;2023-02-16T04:38:20;94021.56;;;-1.69;100.00
17873;BME280;36318;42.620;23.338;2023-02-16T04:40:47;94020.84;;;-1.76;100.00
17873;BME280;36318;42.620;23.338;2023-02-16T04:43:13;94012.44;;;-1.81;100.00
17873;BME280;36318;42.620;23.338;2023-02-16T04:45:40;94026.00;;;-1.79;100.00
17873;BME280;36318;42.620;23.338;2023-02-16T04:48:06;94021.81;;;-1.82;100.00
17873;BME280;36318;42.620;23.338;2023-02-16T04:50:33;94027.44;;;-1.66;100.00
17873;BME280;36318;42.620;23.338;2023-02-16T04:53:01;94030.25;;;-1.79;100.00
17873;BME280;36318;42.620;23.338;2023-02-16T04:55:27;94037.84;;;-1.78;100.00
17873;BME280;36318;42.620;23.338;2023-02-16T04:57:55;94035.59;;;-1.93;100.00
17873;BME280;36318;42.620;23.338;2023-02-16T05:00:21;94036.72;;;-2.09;100.00
17873;BME280;36318;42.620;23.338;2023-02-16T05:02:48;94039.19;;;-2.05;100.00
17873;BME280;36318;42.620;23.338;2023-02-16T05:05:14;94035.09;;;-2.13;100.00
17873;BME280;36318;42.620;23.338;2023-02-16T05:07:41;94040.31;;;-2.21;100.00
17873;BME280;36318;42.620;23.338;2023-02-16T05:10:09;94042.84;;;-2.21;100.00
17873;BME280;36318;42.620;23.338;2023-02-16T05:12:36;94044.63;;;-2.24;100.00
17873;BME280;36318;42.620;23.338;2023-02-16T05:15:20;94043.78;;;-2.26;100.00
17873;BME280;36318;42.620;23.338;2023-02-16T05:17:46;94043.03;;;-2.30;100.00
17873;BME280;36318;42.620;23.338;2023-02-16T05:20:13;94048.88;;;-2.26;100.00
17873;BME280;36318;42.620;23.338;2023-02-16T05:22:39;94046.28;;;-2.23;100.00
17873;BME280;36318;42.620;23.338;2023-02-16T05:25:09;94051.41;;;-2.25;100.00
17873;BME280;36318;42.620;23.338;2023-02-16T05:27:35;94049.72;;;-2.24;100.00
17873;BME280;36318;42.620;23.338;2023-02-16T05:30:02;94048.88;;;-2.26;100.00
17873;BME280;36318;42.620;23.338;2023-02-16T05:32:29;94051.50;;;-2.31;100.00
17873;BME280;36318;42.620;23.338;2023-02-16T05:34:55;94055.75;;;-2.31;100.00
17873;BME280;36318;42.620;23.338;2023-02-16T05:37:22;94056.56;;;-2.29;100.00
17873;BME280;36318;42.620;23.338;2023-02-16T05:39:48;94055.78;;;-2.34;100.00
17873;BME280;36318;42.620;23.338;2023-02-16T05:42:18;94049.88;;;-2.35;100.00
17873;BME280;36318;42.620;23.338;2023-02-16T05:44:44;94052.31;;;-2.27;100.00
17873;BME280;36318;42.620;23.338;2023-02-16T05:47:12;94059.88;;;-2.26;100.00
17873;BME280;36318;42.620;23.338;2023-02-16T05:49:38;94055.59;;;-2.22;100.00
17873;BME280;36318;42.620;23.338;2023-02-16T05:52:05;94058.06;;;-2.16;100.00
17873;BME280;36318;42.620;23.338;2023-02-16T05:54:31;94062.16;;;-2.09;100.00
17873;BME280;36318;42.620;23.338;2023-02-16T05:56:58;94056.91;;;-2.00;100.00
17873;BME280;36318;42.620;23.338;2023-02-16T05:59:26;94061.81;;;-1.91;100.00
17873;BME280;36318;42.620;23.338;2023-02-16T06:01:52;94059.72;;;-1.69;100.00
17873;BME280;36318;42.620;23.338;2023-02-16T06:04:20;94055.06;;;-1.48;100.00
17873;BME280;36318;42.620;23.338;2023-02-16T06:06:46;94057.97;;;-1.23;100.00
17873;BME280;36318;42.620;23.338;2023-02-16T06:09:13;94062.19;;;-0.82;100.00
17873;BME280;36318;42.620;23.338;2023-02-16T06:11:40;94055.44;;;-0.48;100.00
17873;BME280;36318;42.620;23.338;2023-02-16T06:14:07;94060.88;;;-0.26;100.00
17873;BME280;36318;42.620;23.338;2023-02-16T06:16:36;94060.63;;;0.18;100.00
17873;BME280;36318;42.620;23.338;2023-02-16T06:19:03;94067.88;;;0.95;100.00
17873;BME280;36318;42.620;23.338;2023-02-16T06:21:30;94075.38;;;1.58;100.00
17873;BME280;36318;42.620;23.338;2023-02-16T06:23:56;94086.50;;;2.11;100.00
17873;BME280;36318;42.620;23.338;2023-02-16T06:26:23;94091.03;;;3.48;100.00
17873;BME280;36318;42.620;23.338;2023-02-16T06:28:50;94101.03;;;4.20;100.00
17873;BME280;36318;42.620;23.338;2023-02-16T06:31:16;94105.84;;;5.29;100.00
17873;BME280;36318;42.620;23.338;2023-02-16T06:33:44;94109.88;;;5.72;100.00
17873;BME280;36318;42.620;23.338;2023-02-16T06:36:11;94113.53;;;6.58;96.31
17873;BME280;36318;42.620;23.338;2023-02-16T06:38:39;94115.34;;;7.89;78.37
17873;BME280;36318;42.620;23.338;2023-02-16T06:41:05;94119.09;;;8.14;75.58
17873;BME280;36318;42.620;23.338;2023-02-16T06:43:32;94110.06;;;9.12;74.66
17873;BME280;36318;42.620;23.338;2023-02-16T06:45:59;94118.84;;;9.68;72.82
17873;BME280;36318;42.620;23.338;2023-02-16T06:48:30;94117.03;;;10.10;66.99
17873;BME280;36318;42.620;23.338;2023-02-16T06:50:58;94117.53;;;9.60;64.35
17873;BME280;36318;42.620;23.338;2023-02-16T06:53:25;94112.25;;;10.45;62.19
17873;BME280;36318;42.620;23.338;2023-02-16T06:55:51;94096.75;;;11.22;58.60
17873;BME280;36318;42.620;23.338;2023-02-16T06:58:18;94100.63;;;11.67;56.77
17873;BME280;36318;42.620;23.338;2023-02-16T07:00:45;94101.53;;;12.04;55.38
17873;BME280;36318;42.620;23.338;2023-02-16T07:03:11;94112.06;;;12.39;54.25
17873;BME280;36318;42.620;23.338;2023-02-16T07:05:38;94101.44;;;12.66;53.09
17873;BME280;36318;42.620;23.338;2023-02-16T07:08:06;94100.00;;;11.76;53.46
17873;BME280;36318;42.620;23.338;2023-02-16T07:10:32;94107.09;;;11.74;54.31
17873;BME280;36318;42.620;23.338;2023-02-16T07:12:59;94093.53;;;12.67;52.72
17873;BME280;36318;42.620;23.338;2023-02-16T07:15:25;94096.19;;;12.78;52.10
17873;BME280;36318;42.620;23.338;2023-02-16T07:17:52;94090.09;;;13.01;51.73
17873;BME280;36318;42.620;23.338;2023-02-16T07:20:18;94083.03;;;11.58;53.03
17873;BME280;36318;42.620;23.338;2023-02-16T07:22:45;94085.13;;;11.91;54.13
17873;BME280;36318;42.620;23.338;2023-02-16T07:25:13;94082.00;;;11.86;53.99
17873;BME280;36318;42.620;23.338;2023-02-16T07:27:39;94081.44;;;12.42;53.42
17873;BME280;36318;42.620;23.338;2023-02-16T07:30:07;94071.97;;;12.65;52.40
17873;BME280;36318;42.620;23.338;2023-02-16T07:32:35;94065.69;;;13.26;51.34
17873;BME280;36318;42.620;23.338;2023-02-16T07:35:01;94068.00;;;13.86;50.83
17873;BME280;36318;42.620;23.338;2023-02-16T07:37:28;94069.47;;;14.55;49.77
17873;BME280;36318;42.620;23.338;2023-02-16T07:39:55;94069.59;;;14.54;49.38
17873;BME280;36318;42.620;23.338;2023-02-16T07:42:23;94063.94;;;14.80;48.46
17873;BME280;36318;42.620;23.338;2023-02-16T07:44:49;94059.94;;;15.38;48.00
17873;BME280;36318;42.620;23.338;2023-02-16T07:47:16;94061.88;;;15.36;47.21
17873;BME280;36318;42.620;23.338;2023-02-16T07:49:46;94055.88;;;15.45;46.92
17873;BME280;36318;42.620;23.338;2023-02-16T07:52:12;94064.28;;;15.28;47.39
17873;BME280;36318;42.620;23.338;2023-02-16T07:54:39;94062.16;;;14.81;48.26
17873;BME280;36318;42.620;23.338;2023-02-16T07:57:06;94066.38;;;16.06;46.16
17873;BME280;36318;42.620;23.338;2023-02-16T07:59:34;94070.84;;;16.15;45.47
17873;BME280;36318;42.620;23.338;2023-02-16T08:02:00;94067.47;;;17.02;44.52
17873;BME280;36318;42.620;23.338;2023-02-16T08:04:27;94066.34;;;17.05;43.91
17873;BME280;36318;42.620;23.338;2023-02-16T08:06:53;94071.00;;;17.68;43.18
17873;BME280;36318;42.620;23.338;2023-02-16T08:09:20;94078.06;;;17.68;43.21
17873;BME280;36318;42.620;23.338;2023-02-16T08:11:46;94075.75;;;17.07;43.43
17873;BME280;36318;42.620;23.338;2023-02-16T08:14:13;94075.88;;;17.15;43.10
17873;BME280;36318;42.620;23.338;2023-02-16T08:16:42;94076.47;;;16.41;44.11
17873;BME280;36318;42.620;23.338;2023-02-16T08:19:09;94084.03;;;17.22;43.22
17873;BME280;36318;42.620;23.338;2023-02-16T08:21:37;94078.09;;;18.05;41.77
17873;BME280;36318;42.620;23.338;2023-02-16T08:24:04;94079.44;;;15.66;43.64
17873;BME280;36318;42.620;23.338;2023-02-16T08:26:32;94078.81;;;15.53;45.19
17873;BME280;36318;42.620;23.338;2023-02-16T08:29:01;94101.81;;;14.86;45.61
17873;BME280;36318;42.620;23.338;2023-02-16T08:31:28;94099.28;;;14.30;47.07
17873;BME280;36318;42.620;23.338;2023-02-16T08:33:57;94096.09;;;14.92;46.27
17873;BME280;36318;42.620;23.338;2023-02-16T08:36:26;94094.84;;;15.07;45.62
17873;BME280;36318;42.620;23.338;2023-02-16T08:38:56;94090.94;;;16.05;44.20
17873;BME280;36318;42.620;23.338;2023-02-16T08:41:27;94094.19;;;15.15;44.11
17873;BME280;36318;42.620;23.338;2023-02-16T08:43:54;94092.47;;;15.04;45.63
17873;BME280;36318;42.620;23.338;2023-02-16T08:46:21;94087.78;;;16.51;44.08
17873;BME280;36318;42.620;23.338;2023-02-16T08:48:48;94086.09;;;18.13;41.69
17873;BME280;36318;42.620;23.338;2023-02-16T08:51:16;94078.34;;;18.38;40.56
17873;BME280;36318;42.620;23.338;2023-02-16T08:53:43;94081.91;;;18.84;40.18
17873;BME280;36318;42.620;23.338;2023-02-16T08:56:11;94076.19;;;18.88;39.75
17873;BME280;36318;42.620;23.338;2023-02-16T08:58:37;94090.66;;;14.08;46.00
17873;BME280;36318;42.620;23.338;2023-02-16T09:01:04;94088.00;;;16.38;44.12
17873;BME280;36318;42.620;23.338;2023-02-16T09:03:32;94077.16;;;18.87;41.43
17873;BME280;36318;42.620;23.338;2023-02-16T09:06:00;93999.41;;;19.46;39.20
17873;BME280;36318;42.620;23.338;2023-02-16T09:08:29;94069.94;;;20.87;37.97
17873;BME280;36318;42.620;23.338;2023-02-16T09:10:59;94075.38;;;20.10;38.22
17873;BME280;36318;42.620;23.338;2023-02-16T09:13:26;94066.63;;;20.77;36.87
17873;BME280;36318;42.620;23.338;2023-02-16T09:15:52;94068.44;;;21.34;36.47
17873;BME280;36318;42.620;23.338;2023-02-16T09:18:19;94064.38;;;20.98;36.88
17873;BME280;36318;42.620;23.338;2023-02-16T09:20:47;94068.41;;;21.18;36.57
17873;BME280;36318;42.620;23.338;2023-02-16T09:23:13;94068.94;;;20.72;36.41
17873;BME280;36318;42.620;23.338;2023-02-16T09:25:41;94069.38;;;17.48;41.04
17873;BME280;36318;42.620;23.338;2023-02-16T09:28:08;94076.94;;;16.25;42.08
17873;BME280;36318;42.620;23.338;2023-02-16T09:30:36;94079.47;;;16.06;42.93
17873;BME280;36318;42.620;23.338;2023-02-16T09:33:03;94075.00;;;16.67;42.87
17873;BME280;36318;42.620;23.338;2023-02-16T09:35:29;94061.78;;;18.11;41.43
17873;BME280;36318;42.620;23.338;2023-02-16T09:37:56;94065.00;;;19.83;39.21
17873;BME280;36318;42.620;23.338;2023-02-16T09:40:23;94055.63;;;20.40;38.50
17873;BME280;36318;42.620;23.338;2023-02-16T09:42:57;94047.13;;;20.62;37.55
17873;BME280;36318;42.620;23.338;2023-02-16T09:45:27;94042.31;;;20.57;37.46
17873;BME280;36318;42.620;23.338;2023-02-16T09:47:54;94046.97;;;21.54;36.67
17873;BME280;36318;42.620;23.338;2023-02-16T09:50:23;94054.91;;;18.99;39.25
17873;BME280;36318;42.620;23.338;2023-02-16T09:52:52;94042.63;;;19.87;38.00
17873;BME280;36318;42.620;23.338;2023-02-16T09:55:20;94045.97;;;21.38;37.16
17873;BME280;36318;42.620;23.338;2023-02-16T09:57:52;94054.16;;;17.42;39.28
17873;BME280;36318;42.620;23.338;2023-02-16T10:00:25;94054.66;;;16.50;41.36
17873;BME280;36318;42.620;23.338;2023-02-16T10:02:56;94055.94;;;16.55;42.03
17873;BME280;36318;42.620;23.338;2023-02-16T10:05:28;94037.13;;;18.66;39.89
17873;BME280;36318;42.620;23.338;2023-02-16T10:08:01;94035.22;;;19.90;38.50
17873;BME280;36318;42.620;23.338;2023-02-16T10:10:30;94045.81;;;18.22;39.07
17873;BME280;36318;42.620;23.338;2023-02-16T10:12:59;94035.75;;;19.94;38.89
17873;BME280;36318;42.620;23.338;2023-02-16T10:15:30;94022.03;;;21.64;36.35
17873;BME280;36318;42.620;23.338;2023-02-16T10:18:01;94026.47;;;20.49;37.74
17873;BME280;36318;42.620;23.338;2023-02-16T10:20:29;94031.75;;;16.33;41.37
17873;BME280;36318;42.620;23.338;2023-02-16T10:22:59;94023.09;;;19.46;39.36
17873;BME280;36318;42.620;23.338;2023-02-16T10:25:31;94020.81;;;18.63;39.83
17873;BME280;36318;42.620;23.338;2023-02-16T10:28:03;94024.06;;;19.96;38.49
17873;BME280;36318;42.620;23.338;2023-02-16T10:30:32;94020.19;;;17.60;40.02
17873;BME280;36318;42.620;23.338;2023-02-16T10:33:01;94020.75;;;18.27;39.22
17873;BME280;36318;42.620;23.338;2023-02-16T10:35:36;94023.47;;;17.52;40.16
17873;BME280;36318;42.620;23.338;2023-02-16T10:38:09;94017.34;;;16.96;42.34
17873;BME280;36318;42.620;23.338;2023-02-16T10:40:41;94017.81;;;18.03;40.25
17873;BME280;36318;42.620;23.338;2023-02-16T10:43:13;94020.09;;;17.88;41.31
17873;BME280;36318;42.620;23.338;2023-02-16T10:45:44;94015.50;;;18.45;40.28
17873;BME280;36318;42.620;23.338;2023-02-16T10:48:11;94016.03;;;16.52;42.07
17873;BME280;36318;42.620;23.338;2023-02-16T10:50:39;94017.44;;;16.46;43.17
17873;BME280;36318;42.620;23.338;2023-02-16T10:53:08;94026.25;;;14.51;44.48
17873;BME280;36318;42.620;23.338;2023-02-16T10:55:36;94017.13;;;14.46;45.30
17873;BME280;36318;42.620;23.338;2023-02-16T10:58:03;94018.38;;;13.19;48.39
17873;BME280;36318;42.620;23.338;2023-02-16T11:00:34;94020.00;;;12.75;48.90
17873;BME280;36318;42.620;23.338;2023-02-16T11:03:09;94013.09;;;12.97;49.23
17873;BME280;36318;42.620;23.338;2023-02-16T11:05:38;94009.25;;;12.79;49.52
17873;BME280;36318;42.620;23.338;2023-02-16T11:08:06;94013.41;;;11.99;51.03
17873;BME280;36318;42.620;23.338;2023-02-16T11:10:40;94005.09;;;11.94;50.87
17873;BME280;36318;42.620;23.338;2023-02-16T11:13:09;93996.13;;;12.46;50.55
17873;BME280;36318;42.620;23.338;2023-02-16T11:15:42;93991.84;;;13.26;50.67
17873;BME280;36318;42.620;23.338;2023-02-16T11:18:22;93997.72;;;12.12;50.98
17873;BME280;36318;42.620;23.338;2023-02-16T11:20:52;94000.72;;;12.19;52.06
17873;BME280;36318;42.620;23.338;2023-02-16T11:23:20;93999.94;;;11.44;51.61
17873;BME280;36318;42.620;23.338;2023-02-16T11:25:52;93991.69;;;12.12;52.33
17873;BME280;36318;42.620;23.338;2023-02-16T11:28:24;93996.72;;;12.26;51.19
17873;BME280;36318;42.620;23.338;2023-02-16T11:30:51;93996.47;;;12.18;51.51
17873;BME280;36318;42.620;23.338;2023-02-16T11:33:26;93989.41;;;12.07;52.07
17873;BME280;36318;42.620;23.338;2023-02-16T11:35:53;93985.22;;;12.17;51.99
17873;BME280;36318;42.620;23.338;2023-02-16T11:38:27;93985.19;;;12.30;51.44
17873;BME280;36318;42.620;23.338;2023-02-16T11:40:54;93983.72;;;11.78;52.79
17873;BME280;36318;42.620;23.338;2023-02-16T11:43:21;93974.53;;;12.09;52.42
17873;BME280;36318;42.620;23.338;2023-02-16T11:45:58;93975.63;;;12.18;51.95
17873;BME280;36318;42.620;23.338;2023-02-16T11:48:28;93982.38;;;11.48;52.95
17873;BME280;36318;42.620;23.338;2023-02-16T11:50:56;93982.94;;;10.64;54.48
17873;BME280;36318;42.620;23.338;2023-02-16T11:53:23;93975.66;;;11.20;53.99
17873;BME280;36318;42.620;23.338;2023-02-16T11:55:50;93971.00;;;11.86;53.06
17873;BME280;36318;42.620;23.338;2023-02-16T11:58:35;93974.03;;;11.68;52.24
17873;BME280;36318;42.620;23.338;2023-02-16T12:01:03;93966.44;;;12.01;51.94
17873;BME280;36318;42.620;23.338;2023-02-16T12:03:42;93967.03;;;11.68;52.16
17873;BME280;36318;42.620;23.338;2023-02-16T12:06:18;93969.75;;;10.93;54.72
17873;BME280;36318;42.620;23.338;2023-02-16T12:11:34;93963.91;;;11.27;53.36
17873;BME280;36318;42.620;23.338;2023-02-16T12:14:08;93949.44;;;11.48;52.99
17873;BME280;36318;42.620;23.338;2023-02-16T12:16:43;93949.06;;;11.04;53.33
17873;BME280;36318;42.620;23.338;2023-02-16T12:19:21;93947.97;;;11.44;53.38
17873;BME280;36318;42.620;23.338;2023-02-16T12:21:49;93939.19;;;11.21;53.85
17873;BME280;36318;42.620;23.338;2023-02-16T12:24:25;93939.03;;;11.84;52.82
17873;BME280;36318;42.620;23.338;2023-02-16T12:26:55;93939.38;;;12.38;53.04
17873;BME280;36318;42.620;23.338;2023-02-16T12:29:26;93936.50;;;11.72;52.76
17873;BME280;36318;42.620;23.338;2023-02-16T12:32:03;93922.16;;;12.14;52.76
17873;BME280;36318;42.620;23.338;2023-02-16T12:34:36;93932.03;;;12.67;51.72
17873;BME280;36318;42.620;23.338;2023-02-16T12:37:11;93926.22;;;12.64;51.67
17873;BME280;36318;42.620;23.338;2023-02-16T12:39:44;93917.91;;;12.58;51.43
17873;BME280;36318;42.620;23.338;2023-02-16T12:42:17;93926.72;;;11.75;52.62
17873;BME280;36318;42.620;23.338;2023-02-16T12:44:47;93918.97;;;12.56;52.73
17873;BME280;36318;42.620;23.338;2023-02-16T12:47:18;93921.75;;;11.47;53.92
17873;BME280;36318;42.620;23.338;2023-02-16T12:49:50;93919.97;;;12.31;52.16
17873;BME280;36318;42.620;23.338;2023-02-16T12:52:21;93912.78;;;12.11;52.68
17873;BME280;36318;42.620;23.338;2023-02-16T12:54:50;93911.66;;;11.91;52.94
17873;BME280;36318;42.620;23.338;2023-02-16T12:57:18;93905.94;;;12.10;52.57
17873;BME280;36318;42.620;23.338;2023-02-16T12:59:46;93909.13;;;11.30;53.36
17873;BME280;36318;42.620;23.338;2023-02-16T13:02:15;93911.47;;;11.82;52.33
17873;BME280;36318;42.620;23.338;2023-02-16T13:04:45;93896.00;;;12.50;52.38